createdAt,value
2019-03-08T18:28:00.336Z,0
2019-03-08T18:28:12.248Z,0.2
2019-03-08T18:28:25.614Z,0.2
2019-03-08T18:28:38.252Z,0.4
2019-03-08T18:28:50.637Z,0.4
2019-03-08T18:29:03.327Z,0.4
2019-03-08T18:29:15.678Z,0.1
2019-03-08T18:29:28.675Z,0.5
2019-03-08T18:29:40.620Z,0.5
2019-03-08T18:29:52.623Z,0.2
2019-03-08T18:30:04.527Z,0.2
2019-03-08T18:30:16.478Z,0.2
2019-03-08T18:30:28.438Z,0.2
2019-03-08T18:30:40.491Z,0.2
2019-03-08T18:30:52.605Z,0.2
2019-03-08T18:31:04.510Z,0.2
2019-03-08T18:31:16.404Z,0.2
2019-03-08T18:31:28.326Z,0.3
2019-03-08T18:31:40.310Z,0.2
2019-03-08T18:31:52.198Z,0.2
2019-03-08T18:32:04.080Z,0.1
2019-03-08T18:32:16.099Z,0.1
2019-03-08T18:32:28.902Z,0.2
2019-03-08T18:32:40.914Z,0.2
2019-03-08T18:32:52.828Z,0.2
2019-03-08T18:33:04.766Z,0.2
2019-03-08T18:33:16.668Z,0.2
2019-03-08T18:33:28.637Z,0.2
2019-03-08T18:33:40.568Z,0.2
2019-03-08T18:33:52.558Z,0.1
2019-03-08T18:34:05.351Z,0.1
2019-03-08T18:34:17.297Z,0.1
2019-03-08T18:34:29.232Z,0.2
2019-03-08T18:34:41.179Z,0.2
2019-03-08T18:34:53.149Z,0.1
2019-03-08T18:35:05.117Z,0.1
2019-03-08T18:35:17.200Z,0.1
2019-03-08T18:35:29.196Z,0.1
2019-03-08T18:35:41.134Z,0.1
2019-03-08T18:35:53.082Z,0.1
2019-03-08T18:36:04.987Z,0.2
2019-03-08T18:36:16.879Z,0.2
2019-03-08T18:36:28.853Z,0.1
2019-03-08T18:36:40.821Z,0.3
2019-03-08T18:36:53.408Z,0.3
2019-03-08T18:37:05.340Z,0.2
2019-03-08T18:37:17.335Z,0.2
2019-03-08T18:37:29.487Z,0.2
2019-03-08T18:37:41.922Z,0.3
2019-03-08T18:37:53.920Z,0.2
2019-03-08T18:38:05.882Z,0.2
2019-03-08T18:38:17.807Z,0.2
2019-03-08T18:38:29.719Z,0.2
2019-03-08T18:38:41.666Z,0.2
2019-03-08T18:38:53.543Z,0.1
2019-03-08T18:39:05.433Z,0.1
2019-03-08T18:39:17.358Z,0.2
2019-03-08T18:39:29.329Z,0.2
2019-03-08T18:39:41.329Z,0.2
2019-03-08T18:39:53.319Z,0.2
2019-03-08T18:40:05.274Z,0.2
2019-03-08T18:40:17.224Z,0.2
2019-03-08T18:40:29.151Z,0.2
2019-03-08T18:40:41.143Z,0.2
2019-03-08T18:40:53.046Z,0.2
2019-03-08T18:41:05.057Z,0.1
2019-03-08T18:41:17.053Z,0.1
2019-03-08T18:41:29.018Z,0.1
2019-03-08T18:41:42.888Z,0.1
2019-03-08T18:41:53.089Z,0.1
2019-03-08T18:42:04.954Z,0.1
2019-03-08T18:42:16.851Z,0.1
2019-03-08T18:42:28.823Z,0.1
2019-03-08T18:42:40.710Z,0.1
2019-03-08T18:42:52.697Z,0.2
2019-03-08T18:43:04.603Z,0.1
2019-03-08T18:43:16.609Z,0.1
2019-03-08T18:43:28.550Z,0.2
2019-03-08T18:43:40.425Z,0.2
2019-03-08T18:43:52.347Z,0.2
2019-03-08T18:44:04.393Z,0.2
2019-03-08T18:44:16.255Z,0.1
2019-03-08T18:44:28.268Z,0.1
2019-03-08T18:44:40.651Z,0.1
2019-03-08T18:44:52.618Z,0.3
2019-03-08T18:45:04.633Z,0.3
2019-03-08T18:45:16.534Z,0.3
2019-03-08T18:45:28.606Z,0.3
2019-03-08T18:45:40.521Z,0.2
2019-03-08T18:45:52.431Z,0.2
2019-03-08T18:46:04.376Z,0.2
2019-03-08T18:46:16.369Z,0.1
2019-03-08T18:46:28.473Z,0.1
2019-03-08T18:46:40.506Z,0.2
2019-03-08T18:46:52.778Z,0.4
2019-03-08T18:47:05.297Z,0.4
2019-03-08T18:47:17.965Z,0.1
2019-03-08T18:47:30.005Z,0.1
2019-03-08T18:47:42.267Z,0.2
2019-03-08T18:47:54.423Z,0.2
2019-03-08T18:48:06.425Z,0.2
2019-03-08T18:48:18.424Z,0.2
2019-03-08T18:48:30.395Z,0.2
2019-03-08T18:48:42.334Z,0.2
2019-03-08T18:48:54.322Z,0.1
2019-03-08T18:49:06.351Z,0.1
2019-03-08T18:49:18.476Z,0.2
2019-03-08T18:49:30.601Z,0.2
2019-03-08T18:49:42.635Z,0.2
2019-03-08T18:49:54.580Z,0.2
2019-03-08T18:50:06.719Z,0.2
2019-03-08T18:50:18.781Z,0.1
2019-03-08T18:50:30.755Z,0.1
2019-03-08T18:50:42.707Z,0.2
2019-03-08T18:50:54.748Z,0.3
2019-03-08T18:51:06.767Z,0.4
2019-03-08T18:51:18.776Z,0.4
2019-03-08T18:51:30.708Z,0.2
2019-03-08T18:51:42.723Z,0.5
2019-03-08T18:51:54.882Z,0.5
2019-03-08T18:52:07.235Z,0.7
2019-03-08T18:52:19.388Z,0.4
2019-03-08T18:52:31.614Z,0.4
2019-03-08T18:52:43.661Z,0.2
2019-03-08T18:52:55.694Z,0.1
2019-03-08T18:53:08.253Z,0.1
2019-03-08T18:53:20.757Z,0.2
2019-03-08T18:53:33.254Z,0.3
2019-03-08T18:53:45.263Z,0.2
2019-03-08T18:53:57.279Z,0.2
2019-03-08T18:54:09.303Z,0.3
2019-03-08T18:54:21.330Z,0.4
2019-03-08T18:54:33.432Z,0.2
2019-03-08T18:54:45.481Z,0.1
2019-03-08T18:54:57.593Z,0.2
2019-03-08T18:55:09.559Z,0.2
2019-03-08T18:55:21.765Z,0.1
2019-03-08T18:55:33.925Z,0.1
2019-03-08T18:55:46.408Z,0.1
2019-03-08T18:55:58.772Z,0.1
2019-03-08T18:56:10.910Z,0.1
2019-03-08T18:56:23.034Z,0.1
2019-03-08T18:56:35.065Z,0.2
2019-03-08T18:56:47.009Z,0.2
2019-03-08T18:56:59.021Z,0.2
2019-03-08T18:57:11.876Z,0.2
2019-03-08T18:57:24.011Z,0.5
2019-03-08T18:57:36.574Z,0.4
2019-03-08T18:57:48.915Z,0.5
2019-03-08T18:58:01.256Z,0.2
2019-03-08T18:58:13.423Z,0.2
2019-03-08T18:58:26.236Z,0.1
2019-03-08T18:58:38.480Z,0.1
2019-03-08T18:58:50.493Z,0.1
2019-03-08T18:59:02.476Z,0.1
2019-03-08T18:59:14.665Z,0.2
2019-03-08T18:59:26.719Z,0.2
2019-03-08T18:59:38.715Z,0.2
2019-03-08T18:59:50.726Z,0.2
2019-03-08T19:00:02.673Z,0.2
2019-03-08T19:00:14.729Z,0.2
2019-03-08T19:00:26.928Z,0.2
2019-03-08T19:00:39.394Z,0.2
2019-03-08T19:00:51.311Z,0.1
2019-03-08T19:01:03.485Z,0.3
2019-03-08T19:01:15.712Z,0.3
2019-03-08T19:01:27.885Z,0.3
2019-03-08T19:01:39.916Z,0.1
2019-03-08T19:01:51.904Z,0.1
2019-03-08T19:02:03.805Z,0.1
2019-03-08T19:02:15.692Z,0.2
2019-03-08T19:02:27.607Z,0.2
2019-03-08T19:02:39.481Z,0.3
2019-03-08T19:02:51.480Z,0.2
2019-03-08T19:03:03.540Z,0.2
2019-03-08T19:03:15.394Z,0.2
2019-03-08T19:03:27.578Z,0.2
2019-03-08T19:03:39.557Z,0.2
2019-03-08T19:03:51.719Z,0.3
2019-03-08T19:04:03.734Z,0.3
2019-03-08T19:04:15.630Z,0.2
2019-03-08T19:04:27.521Z,0.2
2019-03-08T19:04:39.452Z,0.3
2019-03-08T19:04:51.685Z,0.4
2019-03-08T19:05:03.746Z,0.3
2019-03-08T19:05:15.734Z,0.3
2019-03-08T19:05:27.726Z,0.2
2019-03-08T19:05:39.575Z,0.3
2019-03-08T19:05:51.677Z,0.3
2019-03-08T19:06:03.579Z,0.3
2019-03-08T19:06:15.545Z,0.1
2019-03-08T19:06:27.436Z,0.1
2019-03-08T19:06:39.565Z,0.2
2019-03-08T19:06:51.589Z,0.2
2019-03-08T19:07:03.605Z,0.1
2019-03-08T19:07:15.561Z,0.3
2019-03-08T19:07:27.534Z,0.3
2019-03-08T19:07:39.471Z,0.2
2019-03-08T19:07:51.416Z,0.1
2019-03-08T19:08:03.269Z,0.1
2019-03-08T19:08:15.701Z,0.2
2019-03-08T19:08:27.857Z,0.2
2019-03-08T19:08:39.865Z,0.2
2019-03-08T19:08:51.771Z,0.2
2019-03-08T19:09:03.691Z,0.2
2019-03-08T19:09:15.590Z,0.2
2019-03-08T19:09:27.564Z,0.2
2019-03-08T19:09:39.541Z,0.1
2019-03-08T19:09:51.512Z,0.1
2019-03-08T19:10:03.588Z,0.1
2019-03-08T19:10:15.360Z,0.1
2019-03-08T19:10:28.011Z,0.1
2019-03-08T19:10:39.441Z,0.1
2019-03-08T19:10:51.412Z,0.2
2019-03-08T19:11:03.621Z,0.2
2019-03-08T19:11:15.576Z,0.2
2019-03-08T19:11:27.484Z,0.2
2019-03-08T19:11:39.531Z,0.2
2019-03-08T19:11:51.614Z,0.2
2019-03-08T19:12:04.524Z,0.2
2019-03-08T19:12:16.642Z,0.2
2019-03-08T19:12:28.578Z,0.2
2019-03-08T19:12:40.545Z,0.2
2019-03-08T19:12:52.479Z,0.2
2019-03-08T19:13:04.421Z,0.1
2019-03-08T19:13:16.400Z,0.1
2019-03-08T19:13:28.502Z,0.1
2019-03-08T19:13:40.794Z,0.1
2019-03-08T19:13:52.851Z,0.2
2019-03-08T19:14:04.778Z,0.3
2019-03-08T19:14:16.742Z,0.3
2019-03-08T19:14:28.765Z,0.3
2019-03-08T19:14:40.692Z,0.2
2019-03-08T19:14:52.659Z,0.3
2019-03-08T19:15:04.570Z,0.2
2019-03-08T19:15:16.421Z,0.3
2019-03-08T19:15:28.298Z,0.2
2019-03-08T19:15:40.203Z,0.1
2019-03-08T19:15:52.078Z,0.2
2019-03-08T19:16:04.133Z,0.2
2019-03-08T19:16:16.070Z,0.1
2019-03-08T19:16:28.088Z,0.1
2019-03-08T19:16:40.128Z,0.1
2019-03-08T19:16:52.080Z,0.1
2019-03-08T19:17:04.119Z,0.2
2019-03-08T19:17:16.180Z,0.2
2019-03-08T19:17:29.142Z,0.2
2019-03-08T19:17:40.998Z,0.4
2019-03-08T19:17:53.029Z,0.3
2019-03-08T19:18:04.931Z,0.3
2019-03-08T19:18:16.871Z,0.1
2019-03-08T19:18:28.763Z,0.1
2019-03-08T19:18:41.745Z,0.1
2019-03-08T19:18:53.775Z,0.1
2019-03-08T19:19:05.663Z,0.1
2019-03-08T19:19:17.548Z,0.1
2019-03-08T19:19:29.490Z,0.1
2019-03-08T19:19:41.568Z,0.2
2019-03-08T19:19:53.485Z,0.1
2019-03-08T19:20:05.405Z,0.1
2019-03-08T19:20:17.232Z,0.4
2019-03-08T19:20:29.167Z,0.4
2019-03-08T19:20:41.155Z,0.1
2019-03-08T19:20:52.991Z,0.1
2019-03-08T19:21:05.102Z,0.3
2019-03-08T19:21:17.449Z,0.3
2019-03-08T19:21:29.556Z,0.4
2019-03-08T19:21:41.673Z,0.4
2019-03-08T19:21:53.790Z,0.3
2019-03-08T19:22:05.916Z,0.1
2019-03-08T19:22:26.054Z,0.2
2019-03-08T19:22:30.874Z,0.2
2019-03-08T19:22:42.947Z,0.2
2019-03-08T19:22:54.879Z,0.2
2019-03-08T19:23:06.896Z,0.1
2019-03-08T19:23:18.881Z,0.1
2019-03-08T19:23:31.038Z,0.2
2019-03-08T19:23:42.990Z,0.1
2019-03-08T19:23:54.970Z,0.1
2019-03-08T19:24:06.901Z,0.1
2019-03-08T19:24:18.852Z,0.3
2019-03-08T19:24:32.505Z,0.3
2019-03-08T19:24:42.746Z,0.2
2019-03-08T19:24:54.709Z,0.2
2019-03-08T19:25:06.634Z,0.2
2019-03-08T19:25:18.651Z,0.2
2019-03-08T19:25:30.655Z,0.3
2019-03-08T19:25:42.679Z,0.3
2019-03-08T19:25:54.708Z,0.2
2019-03-08T19:26:06.691Z,0.9
2019-03-08T19:26:18.650Z,0.8
2019-03-08T19:26:30.647Z,0.3
2019-03-08T19:26:42.601Z,0.1
2019-03-08T19:26:54.612Z,0.1
2019-03-08T19:27:06.633Z,0.1
2019-03-08T19:27:18.728Z,0.2
2019-03-08T19:27:30.658Z,0.2
2019-03-08T19:27:42.654Z,0.2
2019-03-08T19:27:54.770Z,0.2
2019-03-08T19:28:06.770Z,0.2
2019-03-08T19:28:18.795Z,0.2
2019-03-08T19:28:30.833Z,0.1
2019-03-08T19:28:42.807Z,0.2
2019-03-08T19:28:54.776Z,0.2
2019-03-08T19:29:06.754Z,0.1
2019-03-08T19:29:18.879Z,0.1
2019-03-08T19:29:30.855Z,0.1
2019-03-08T19:29:42.789Z,0.1
2019-03-08T19:29:54.759Z,0.1
2019-03-08T19:30:06.756Z,0.1
2019-03-08T19:30:18.725Z,0.1
2019-03-08T19:30:30.733Z,0.3
2019-03-08T19:30:42.722Z,0.3
2019-03-08T19:30:54.735Z,0.2
2019-03-08T19:31:07.735Z,0.1
2019-03-08T19:31:19.756Z,0.2
2019-03-08T19:31:31.775Z,0.1
2019-03-08T19:31:43.811Z,0.1
2019-03-08T19:31:55.804Z,0.1
2019-03-08T19:32:07.832Z,0.1
2019-03-08T19:32:19.889Z,0.2
2019-03-08T19:32:32.010Z,0.2
2019-03-08T19:32:44.042Z,0.3
2019-03-08T19:32:55.977Z,0.3
2019-03-08T19:33:07.980Z,0.2
2019-03-08T19:33:19.955Z,0.2
2019-03-08T19:33:31.842Z,0.2
2019-03-08T19:33:43.889Z,0.2
2019-03-08T19:33:56.090Z,0.3
2019-03-08T19:34:08.118Z,0.3
2019-03-08T19:34:20.057Z,0.2
2019-03-08T19:34:31.957Z,0.2
2019-03-08T19:34:43.998Z,0.2
2019-03-08T19:34:55.918Z,0.1
2019-03-08T19:35:07.938Z,0.1
2019-03-08T19:35:19.905Z,0.3
2019-03-08T19:35:31.819Z,0.3
2019-03-08T19:35:44.092Z,0.3
2019-03-08T19:35:56.089Z,0.3
2019-03-08T19:36:08.039Z,0.3
2019-03-08T19:36:19.993Z,0.2
2019-03-08T19:36:31.950Z,0.2
2019-03-08T19:36:43.953Z,0.2
2019-03-08T19:36:56.004Z,0.2
2019-03-08T19:37:07.965Z,0.1
2019-03-08T19:37:19.919Z,0.1
2019-03-08T19:37:31.836Z,0.2
2019-03-08T19:37:43.805Z,0.2
2019-03-08T19:37:55.810Z,0.2
2019-03-08T19:38:07.750Z,0.2
2019-03-08T19:38:19.662Z,0.1
2019-03-08T19:38:31.552Z,0.2
2019-03-08T19:38:43.487Z,0.3
2019-03-08T19:38:55.483Z,0.2
2019-03-08T19:39:07.408Z,0.3
2019-03-08T19:39:19.503Z,0.2
2019-03-08T19:39:31.511Z,0.2
2019-03-08T19:39:43.470Z,0.2
2019-03-08T19:39:55.410Z,0.2
2019-03-08T19:40:08.363Z,0.2
2019-03-08T19:40:20.318Z,0.2
2019-03-08T19:40:32.345Z,0.2
2019-03-08T19:40:44.232Z,0.1
2019-03-08T19:40:56.306Z,0.1
2019-03-08T19:41:08.231Z,0.1
2019-03-08T19:41:20.196Z,0.1
2019-03-08T19:41:32.110Z,0.2
2019-03-08T19:41:44.092Z,0.3
2019-03-08T19:41:55.996Z,0.4
2019-03-08T19:42:07.931Z,0.4
2019-03-08T19:42:19.865Z,0.7
2019-03-08T19:42:31.767Z,0.7
2019-03-08T19:42:43.707Z,0.5
2019-03-08T19:42:55.719Z,0.2
2019-03-08T19:43:07.706Z,0.2
2019-03-08T19:43:19.663Z,0.1
2019-03-08T19:43:31.685Z,0.2
2019-03-08T19:43:43.623Z,0.2
2019-03-08T19:43:55.560Z,0.1
2019-03-08T19:44:07.520Z,0.1
2019-03-08T19:44:19.499Z,0.1
2019-03-08T19:44:31.483Z,0.1
2019-03-08T19:44:43.438Z,0.1
2019-03-08T19:44:56.378Z,0.3
2019-03-08T19:45:08.400Z,0.3
2019-03-08T19:45:22.052Z,0.3
2019-03-08T19:45:32.220Z,0.1
2019-03-08T19:45:44.167Z,0.1
2019-03-08T19:45:56.169Z,0.2
2019-03-08T19:46:08.105Z,0.2
2019-03-08T19:46:20.109Z,0.1
2019-03-08T19:46:32.188Z,0.1
2019-03-08T19:46:44.083Z,0.1
2019-03-08T19:46:56.028Z,0.1
2019-03-08T19:47:07.907Z,0.1
2019-03-08T19:47:19.854Z,0.1
2019-03-08T19:47:31.793Z,0.1
2019-03-08T19:47:43.751Z,0.1
2019-03-08T19:47:55.728Z,0.2
2019-03-08T19:48:07.619Z,0.2
2019-03-08T19:48:19.652Z,0.2
2019-03-08T19:48:31.524Z,0.1
2019-03-08T19:48:44.456Z,0.1
2019-03-08T19:48:56.422Z,0.1
2019-03-08T19:49:08.334Z,0.1
2019-03-08T19:49:20.304Z,0.1
2019-03-08T19:49:32.449Z,0.1
2019-03-08T19:49:44.606Z,0.1
2019-03-08T19:49:57.210Z,0.2
2019-03-08T19:50:09.387Z,0.2
2019-03-08T19:50:21.461Z,0.1
2019-03-08T19:50:33.392Z,0.1
2019-03-08T19:50:45.456Z,0.1
2019-03-08T19:50:57.636Z,0.1
2019-03-08T19:51:10.499Z,0.1
2019-03-08T19:51:22.638Z,0.2
2019-03-08T19:51:34.654Z,0.2
2019-03-08T19:51:46.641Z,0.2
2019-03-08T19:51:58.626Z,0.4
2019-03-08T19:52:10.652Z,0.5
2019-03-08T19:52:22.523Z,0.5
2019-03-08T19:52:34.533Z,0.1
2019-03-08T19:52:46.490Z,0.1
2019-03-08T19:52:58.490Z,0.2
2019-03-08T19:53:10.546Z,0.3
2019-03-08T19:53:22.664Z,0.1
2019-03-08T19:53:34.612Z,0.2
2019-03-08T19:53:46.879Z,0.4
2019-03-08T19:53:58.956Z,0.4
2019-03-08T19:54:11.035Z,0.3
2019-03-08T19:54:23.077Z,0.2
2019-03-08T19:54:35.191Z,0.2
2019-03-08T19:54:47.348Z,0.1
2019-03-08T19:54:59.307Z,0.1
2019-03-08T19:55:11.287Z,0.2
2019-03-08T19:55:23.246Z,0.3
2019-03-08T19:55:35.247Z,0.2
2019-03-08T19:55:47.287Z,0.1
2019-03-08T19:55:59.244Z,0.1
2019-03-08T19:56:11.200Z,0.1
2019-03-08T19:56:23.282Z,0.1
2019-03-08T19:56:35.120Z,0.2
2019-03-08T19:56:47.091Z,0.2
2019-03-08T19:56:59.096Z,0.2
2019-03-08T19:57:11.052Z,0.2
2019-03-08T19:57:22.957Z,0.1
2019-03-08T19:57:34.917Z,0.1
2019-03-08T19:57:46.893Z,0.2
2019-03-08T19:57:58.824Z,0.2
2019-03-08T19:58:10.813Z,0.2
2019-03-08T19:58:22.792Z,0.2
2019-03-08T19:58:34.710Z,0.2
2019-03-08T19:58:46.678Z,0.3
2019-03-08T19:58:58.589Z,0.3
2019-03-08T19:59:10.511Z,0.1
2019-03-08T19:59:22.537Z,0.1
2019-03-08T19:59:34.438Z,0.1
2019-03-08T19:59:46.426Z,0.1
2019-03-08T19:59:58.421Z,0.2
2019-03-08T20:00:10.425Z,0.2
2019-03-08T20:00:22.431Z,0.2
2019-03-08T20:00:34.453Z,0.2
2019-03-08T20:00:46.352Z,0.2
2019-03-08T20:00:58.339Z,0.2
2019-03-08T20:01:10.321Z,0.2
2019-03-08T20:01:22.329Z,0.2
2019-03-08T20:01:34.358Z,0.1
2019-03-08T20:01:46.434Z,0.1
2019-03-08T20:01:58.329Z,0.1
2019-03-08T20:02:10.316Z,0.1
2019-03-08T20:02:22.253Z,0.1
2019-03-08T20:02:41.685Z,0.1
2019-03-08T20:02:47.111Z,0.1
2019-03-08T20:02:59.144Z,0.1
2019-03-08T20:03:11.170Z,0.2
2019-03-08T20:03:24.117Z,0.2
2019-03-08T20:03:36.133Z,0.2
2019-03-08T20:03:48.091Z,0.2
2019-03-08T20:04:00.089Z,0.2
2019-03-08T20:04:12.080Z,0.1
2019-03-08T20:04:23.959Z,0.1
2019-03-08T20:04:35.957Z,0.2
2019-03-08T20:04:48.176Z,0.2
2019-03-08T20:05:00.297Z,0.3
2019-03-08T20:05:12.303Z,0.2
2019-03-08T20:05:24.202Z,0.1
2019-03-08T20:05:36.166Z,0.1
2019-03-08T20:05:48.090Z,0.2
2019-03-08T20:06:00.023Z,0.2
2019-03-08T20:06:12.915Z,0.2
2019-03-08T20:06:24.824Z,0.2
2019-03-08T20:06:36.863Z,0.2
2019-03-08T20:06:48.830Z,0.2
2019-03-08T20:07:00.828Z,0.2
2019-03-08T20:07:12.782Z,0.1
2019-03-08T20:07:24.730Z,0.2
2019-03-08T20:07:36.659Z,0.2
2019-03-08T20:07:48.683Z,0.1
2019-03-08T20:08:00.687Z,0.1
2019-03-08T20:08:12.699Z,0.2
2019-03-08T20:08:24.720Z,0.2
2019-03-08T20:08:36.877Z,0.4
2019-03-08T20:08:48.946Z,0.4
2019-03-08T20:09:00.877Z,0.2
2019-03-08T20:09:12.842Z,0.2
2019-03-08T20:09:24.849Z,0.2
2019-03-08T20:09:38.020Z,0.2
2019-03-08T20:09:50.084Z,0.2
2019-03-08T20:10:02.057Z,0.2
2019-03-08T20:10:14.089Z,0.2
2019-03-08T20:10:26.134Z,0.2
2019-03-08T20:10:38.041Z,0.2
2019-03-08T20:10:49.998Z,0.2
2019-03-08T20:11:01.929Z,0.2
2019-03-08T20:11:13.935Z,0.2
2019-03-08T20:11:26.072Z,0.1
2019-03-08T20:11:37.953Z,0.1
2019-03-08T20:11:49.959Z,0.1
2019-03-08T20:12:02.012Z,0.2
2019-03-08T20:12:14.022Z,0.2
2019-03-08T20:12:25.962Z,0.2
2019-03-08T20:12:37.865Z,0.2
2019-03-08T20:12:49.872Z,0.2
2019-03-08T20:13:01.856Z,0.2
2019-03-08T20:13:13.827Z,0.2
2019-03-08T20:13:26.099Z,0.1
2019-03-08T20:13:38.199Z,0.1
2019-03-08T20:13:50.293Z,0.1
2019-03-08T20:14:02.205Z,0.1
2019-03-08T20:14:14.380Z,0.1
2019-03-08T20:14:26.424Z,0.2
2019-03-08T20:14:38.425Z,0.2
2019-03-08T20:14:50.402Z,0.1
2019-03-08T20:15:02.370Z,0.2
2019-03-08T20:15:14.316Z,0.2
2019-03-08T20:15:26.265Z,0.2
2019-03-08T20:15:38.323Z,0.2
2019-03-08T20:15:50.418Z,0.3
2019-03-08T20:16:02.848Z,0.3
2019-03-08T20:16:15.099Z,0.2
2019-03-08T20:16:27.238Z,0.4
2019-03-08T20:16:39.218Z,0.3
2019-03-08T20:16:51.449Z,0.2
2019-03-08T20:17:03.549Z,0.2
2019-03-08T20:17:15.723Z,0.3
2019-03-08T20:17:27.807Z,0.2
2019-03-08T20:17:39.927Z,0.4
2019-03-08T20:17:52.003Z,0.4
2019-03-08T20:18:04.028Z,0.2
2019-03-08T20:18:16.243Z,0.2
2019-03-08T20:18:29.243Z,0.2
2019-03-08T20:18:41.477Z,0.2
2019-03-08T20:18:53.575Z,0.2
2019-03-08T20:19:05.786Z,0.3
2019-03-08T20:19:17.919Z,0.2
2019-03-08T20:19:30.740Z,0.1
2019-03-08T20:19:42.926Z,0.2
2019-03-08T20:19:54.941Z,0.2
2019-03-08T20:20:07.047Z,0.2
2019-03-08T20:20:19.450Z,0.2
2019-03-08T20:20:32.634Z,0.2
2019-03-08T20:20:44.777Z,0.1
2019-03-08T20:20:56.845Z,0.1
2019-03-08T20:21:09.034Z,0.2
2019-03-08T20:21:21.307Z,0.2
2019-03-08T20:21:33.385Z,0.2
2019-03-08T20:21:45.896Z,0.2
2019-03-08T20:21:58.176Z,0.4
2019-03-08T20:22:10.266Z,0.5
2019-03-08T20:22:22.286Z,0.3
2019-03-08T20:22:34.368Z,0.4
2019-03-08T20:22:46.647Z,0.3
2019-03-08T20:22:58.941Z,0.3
2019-03-08T20:23:11.545Z,0.2
2019-03-08T20:23:24.530Z,0.2
2019-03-08T20:23:37.454Z,0.1
2019-03-08T20:23:50.364Z,0.1
2019-03-08T20:24:03.669Z,0.1
2019-03-08T20:24:15.838Z,0.2
2019-03-08T20:24:28.292Z,0.2
2019-03-08T20:24:41.480Z,0.2
2019-03-08T20:24:53.952Z,0.2
2019-03-08T20:25:06.320Z,0.2
2019-03-08T20:25:19.279Z,0.2
2019-03-08T20:25:32.057Z,0.2
2019-03-08T20:25:44.825Z,0.1
2019-03-08T20:25:57.296Z,0.2
2019-03-08T20:26:09.548Z,0.2
2019-03-08T20:26:21.891Z,0.1
2019-03-08T20:26:34.196Z,0.1
2019-03-08T20:26:46.744Z,0.1
2019-03-08T20:26:59.029Z,0.1
2019-03-08T20:27:11.446Z,0.1
2019-03-08T20:27:23.966Z,0.2
2019-03-08T20:27:36.644Z,0.2
2019-03-08T20:27:49.082Z,0.2
2019-03-08T20:28:01.806Z,0.2
2019-03-08T20:28:14.747Z,0.2
2019-03-08T20:28:27.980Z,0.2
2019-03-08T20:28:40.662Z,0.1
2019-03-08T20:28:52.934Z,0.2
2019-03-08T20:29:05.324Z,0.3
2019-03-08T20:29:17.784Z,0.2
2019-03-08T20:29:30.003Z,0.2
2019-03-08T20:29:42.744Z,0.1
2019-03-08T20:29:55.631Z,0.2
2019-03-08T20:30:08.076Z,0.2
2019-03-08T20:30:20.957Z,0.2
2019-03-08T20:30:33.002Z,0.2
2019-03-08T20:30:45.301Z,0.2
2019-03-08T20:30:58.058Z,0.3
2019-03-08T20:31:10.792Z,0.3
2019-03-08T20:31:22.983Z,0.3
2019-03-08T20:31:35.297Z,0.2
2019-03-08T20:31:48.621Z,0.2
2019-03-08T20:32:01.144Z,0.2
2019-03-08T20:32:13.381Z,0.2
2019-03-08T20:32:25.613Z,0.2
2019-03-08T20:32:37.703Z,0.2
2019-03-08T20:32:49.980Z,0.3
2019-03-08T20:33:02.312Z,0.3
2019-03-08T20:33:14.423Z,0.3
2019-03-08T20:33:26.872Z,0.3
2019-03-08T20:33:39.105Z,0.3
2019-03-08T20:33:51.292Z,0.2
2019-03-08T20:34:03.590Z,0.2
2019-03-08T20:34:15.835Z,0.2
2019-03-08T20:34:28.082Z,0.2
2019-03-08T20:34:40.444Z,0.2
2019-03-08T20:34:52.852Z,0.2
2019-03-08T20:35:05.118Z,0.2
2019-03-08T20:35:17.096Z,0.3
2019-03-08T20:35:29.033Z,0.3
2019-03-08T20:35:41.058Z,0.1
2019-03-08T20:35:53.174Z,0.1
2019-03-08T20:36:05.135Z,0.1
2019-03-08T20:36:17.194Z,0.1
2019-03-08T20:36:29.164Z,0.1
2019-03-08T20:36:41.055Z,0.2
2019-03-08T20:36:52.992Z,0.2
2019-03-08T20:37:05.065Z,0.2
2019-03-08T20:37:17.081Z,0.2
2019-03-08T20:37:29.158Z,0.1
2019-03-08T20:37:41.120Z,0.2
2019-03-08T20:37:53.110Z,0.2
2019-03-08T20:38:05.091Z,0.3
2019-03-08T20:38:17.061Z,0.3
2019-03-08T20:38:29.028Z,0.3
2019-03-08T20:38:41.540Z,0.2
2019-03-08T20:38:54.492Z,0.3
2019-03-08T20:39:06.484Z,0.2
2019-03-08T20:39:18.642Z,0.2
2019-03-08T20:39:30.944Z,0.2
2019-03-08T20:39:42.934Z,0.1
2019-03-08T20:39:55.137Z,0.2
2019-03-08T20:40:07.790Z,0.2
2019-03-08T20:40:19.876Z,0.3
2019-03-08T20:40:31.996Z,0.3
2019-03-08T20:40:43.975Z,0.2
2019-03-08T20:40:55.897Z,0.2
2019-03-08T20:41:07.974Z,0.2
2019-03-08T20:41:20.138Z,0.2
2019-03-08T20:41:32.282Z,0.2
2019-03-08T20:41:44.675Z,0.1
2019-03-08T20:41:56.896Z,0.3
2019-03-08T20:42:09.071Z,0.7
2019-03-08T20:42:21.331Z,0.6
2019-03-08T20:42:33.424Z,0.6
2019-03-08T20:42:45.508Z,0.2
2019-03-08T20:42:57.534Z,0.2
2019-03-08T20:43:09.665Z,0.2
2019-03-08T20:43:21.933Z,0.2
2019-03-08T20:43:34.248Z,0.2
2019-03-08T20:43:46.620Z,0.2
2019-03-08T20:43:58.587Z,0.2
2019-03-08T20:44:10.888Z,0.2
2019-03-08T20:44:22.968Z,0.2
2019-03-08T20:44:35.217Z,0.2
2019-03-08T20:44:47.291Z,0.1
2019-03-08T20:44:59.513Z,0.2
2019-03-08T20:45:11.476Z,0.3
2019-03-08T20:45:23.635Z,0.2
2019-03-08T20:45:36.232Z,0.2
2019-03-08T20:45:48.452Z,0.1
2019-03-08T20:46:00.694Z,0.2
2019-03-08T20:46:13.451Z,0.3
2019-03-08T20:46:26.278Z,0.2
2019-03-08T20:46:38.708Z,0.2
2019-03-08T20:46:50.784Z,0.3
2019-03-08T20:47:02.910Z,0.3
2019-03-08T20:47:15.083Z,0.3
2019-03-08T20:47:27.422Z,0.2
2019-03-08T20:47:39.640Z,0.2
2019-03-08T20:47:51.973Z,0.1
2019-03-08T20:48:04.124Z,0.2
2019-03-08T20:48:16.173Z,0.2
2019-03-08T20:48:28.213Z,0.2
2019-03-08T20:48:40.738Z,0.2
2019-03-08T20:48:53.474Z,0.2
2019-03-08T20:49:05.498Z,0.2
2019-03-08T20:49:17.840Z,0.2
2019-03-08T20:49:30.467Z,0.2
2019-03-08T20:49:43.486Z,0.8
2019-03-08T20:49:56.507Z,0.8
2019-03-08T20:50:09.291Z,0.8
2019-03-08T20:50:22.288Z,0.2
2019-03-08T20:50:34.685Z,0.1
2019-03-08T20:50:47.234Z,0.2
2019-03-08T20:50:59.990Z,0.3
2019-03-08T20:51:12.314Z,0.3
2019-03-08T20:51:24.508Z,0.3
2019-03-08T20:51:37.889Z,0.2
2019-03-08T20:51:50.505Z,0.1
2019-03-08T20:52:04.179Z,0.2
2019-03-08T20:52:17.090Z,0.2
2019-03-08T20:52:29.430Z,0.2
2019-03-08T20:52:41.648Z,0.2
2019-03-08T20:52:53.760Z,0.2
2019-03-08T20:53:05.741Z,0.2
2019-03-08T20:53:17.945Z,0.2
2019-03-08T20:53:30.017Z,0.2
2019-03-08T20:53:42.225Z,0.2
2019-03-08T20:53:54.169Z,0.2
2019-03-08T20:54:06.080Z,0.2
2019-03-08T20:54:19.322Z,0.2
2019-03-08T20:54:31.356Z,0.3
2019-03-08T20:54:43.504Z,0.3
2019-03-08T20:54:55.739Z,0.2
2019-03-08T20:55:08.773Z,0.2
2019-03-08T20:55:20.835Z,0.2
2019-03-08T20:55:33.772Z,0.2
2019-03-08T20:55:46.668Z,0.2
2019-03-08T20:55:59.104Z,0.1
2019-03-08T20:56:11.685Z,0.1
2019-03-08T20:56:24.525Z,0.1
2019-03-08T20:56:37.181Z,0.1
2019-03-08T20:56:50.013Z,0.1
2019-03-08T20:57:02.457Z,0.1
2019-03-08T20:57:14.745Z,0.1
2019-03-08T20:57:27.830Z,0.1
2019-03-08T20:57:40.643Z,0.1
2019-03-08T20:57:53.342Z,0.2
2019-03-08T20:58:06.234Z,0.2
2019-03-08T20:58:19.188Z,0.2
2019-03-08T20:58:31.770Z,0.2
2019-03-08T20:58:44.129Z,0.2
2019-03-08T20:58:56.085Z,0.2
2019-03-08T20:59:10.395Z,0.2
2019-03-08T20:59:24.843Z,0.1
2019-03-08T20:59:36.014Z,0.1
2019-03-08T20:59:52.668Z,0.1
2019-03-08T21:00:08.804Z,0.1
2019-03-08T21:00:22.830Z,0.1
2019-03-08T21:00:35.542Z,0.1
2019-03-08T21:00:48.179Z,0.1
2019-03-08T21:01:00.455Z,0.1
2019-03-08T21:01:12.940Z,0.2
2019-03-08T21:01:25.281Z,0.2
2019-03-08T21:01:37.627Z,0.2
2019-03-08T21:01:50.007Z,0.2
2019-03-08T21:02:02.021Z,0.2
2019-03-08T21:02:14.101Z,0.6
2019-03-08T21:02:26.284Z,0.6
2019-03-08T21:02:38.674Z,0.6
2019-03-08T21:02:50.794Z,0.1
2019-03-08T21:03:03.511Z,0.1
2019-03-08T21:03:16.087Z,0.1
2019-03-08T21:03:28.654Z,0.1
2019-03-08T21:03:41.124Z,0.1
2019-03-08T21:03:53.362Z,0.1
2019-03-08T21:04:05.646Z,0.6
2019-03-08T21:04:17.637Z,0.6
2019-03-08T21:04:29.838Z,0.4
2019-03-08T21:04:41.879Z,0.5
2019-03-08T21:04:54.002Z,0.5
2019-03-08T21:05:06.389Z,0.2
2019-03-08T21:05:18.508Z,0.2
2019-03-08T21:05:31.006Z,0.2
2019-03-08T21:05:43.253Z,0.2
2019-03-08T21:05:55.239Z,0.2
2019-03-08T21:06:07.548Z,0.1
2019-03-08T21:06:20.075Z,0.4
2019-03-08T21:06:33.020Z,0.4
2019-03-08T21:06:46.626Z,0.1
2019-03-08T21:06:59.021Z,0.2
2019-03-08T21:07:11.301Z,0.3
2019-03-08T21:07:23.622Z,0.3
2019-03-08T21:07:35.937Z,0.2
2019-03-08T21:07:48.264Z,0.2
2019-03-08T21:08:00.562Z,0.2
2019-03-08T21:08:12.655Z,0.4
2019-03-08T21:08:24.905Z,0.5
2019-03-08T21:08:36.931Z,0.3
2019-03-08T21:08:49.299Z,0.4
2019-03-08T21:09:01.460Z,0.6
2019-03-08T21:09:13.545Z,0.6
2019-03-08T21:09:25.599Z,0.4
2019-03-08T21:09:37.678Z,0.4
2019-03-08T21:09:49.721Z,0.4
2019-03-08T21:10:01.774Z,0.7
2019-03-08T21:10:13.892Z,0.9
2019-03-08T21:10:25.975Z,0.6
2019-03-08T21:10:38.169Z,0.4
2019-03-08T21:10:50.371Z,0.7
2019-03-08T21:11:02.585Z,0.8
2019-03-08T21:11:14.640Z,0.7
2019-03-08T21:11:26.739Z,0.5
2019-03-08T21:11:38.980Z,0.5
2019-03-08T21:11:51.096Z,0.4
2019-03-08T21:12:03.154Z,0.2
2019-03-08T21:12:15.360Z,0.2
2019-03-08T21:12:27.422Z,0.2
2019-03-08T21:12:39.827Z,0.3
2019-03-08T21:12:51.890Z,0.2
2019-03-08T21:13:04.076Z,0.2
2019-03-08T21:13:16.472Z,0.2
2019-03-08T21:13:28.804Z,0.1
2019-03-08T21:13:41.035Z,0.3
2019-03-08T21:13:53.277Z,0.4
2019-03-08T21:14:05.563Z,0.4
2019-03-08T21:14:17.880Z,0.3
2019-03-08T21:14:30.139Z,0.3
2019-03-08T21:14:42.439Z,0.2
2019-03-08T21:14:54.673Z,0.5
2019-03-08T21:15:06.996Z,0.5
2019-03-08T21:15:25.206Z,0.5
2019-03-08T21:15:32.502Z,0.1